createdAt,value
2022-08-31T00:00:36.931Z,96663.63
2022-08-31T00:03:25.128Z,96649.91
2022-08-31T00:06:07.365Z,96650.59
2022-08-31T00:08:37.514Z,96680.97
2022-08-31T00:11:09.870Z,96677.19
2022-08-31T00:13:38.413Z,96657.16
2022-08-31T00:16:07.347Z,96657.09
2022-08-31T00:18:37.434Z,96647.66
2022-08-31T00:21:06.577Z,96630.03
2022-08-31T00:23:34.900Z,96621.53
2022-08-31T00:26:03.205Z,96615.28
2022-08-31T00:28:31.513Z,96644.78
2022-08-31T00:30:59.833Z,96631.66
2022-08-31T00:33:28.153Z,96644.84
2022-08-31T00:35:57.821Z,96629.69
2022-08-31T00:38:26.078Z,96656.75
2022-08-31T00:40:54.480Z,96655.84
2022-08-31T00:43:40.089Z,96627.53
2022-08-31T00:46:11.285Z,96640.97
2022-08-31T00:48:45.565Z,96616.59
2022-08-31T00:51:18.822Z,96655.47
2022-08-31T00:53:50.779Z,96601.19
2022-08-31T00:56:20.562Z,96655.25
2022-08-31T00:58:54.653Z,96616.91
2022-08-31T01:01:24.432Z,96703.91
2022-08-31T01:03:52.997Z,96667.78
2022-08-31T01:06:24.199Z,96676.03
2022-08-31T01:08:55.699Z,96666.28
2022-08-31T01:11:24.134Z,96637.00
2022-08-31T01:13:52.765Z,96589.41
2022-08-31T01:16:26.045Z,96571.00
2022-08-31T01:18:55.388Z,96672.19
2022-08-31T01:21:30.599Z,96684.19
2022-08-31T01:24:03.876Z,96617.28
2022-08-31T01:26:34.956Z,96631.66
2022-08-31T01:29:07.498Z,96624.63
2022-08-31T01:31:40.239Z,96636.63
2022-08-31T01:34:08.820Z,96693.91
2022-08-31T01:36:40.344Z,96643.13
2022-08-31T01:39:12.464Z,96663.84
2022-08-31T01:41:44.139Z,96613.97
2022-08-31T01:44:17.362Z,96681.94
2022-08-31T01:46:47.305Z,96610.38
2022-08-31T01:49:17.598Z,96637.00
2022-08-31T01:51:47.046Z,96636.66
2022-08-31T01:54:18.493Z,96577.47
2022-08-31T01:56:49.639Z,96641.56
2022-08-31T01:59:25.841Z,96627.03
2022-08-31T02:02:01.108Z,96611.28
2022-08-31T02:04:31.552Z,96652.47
2022-08-31T02:07:02.184Z,96616.59
2022-08-31T02:09:33.155Z,96628.97
2022-08-31T02:12:01.471Z,96516.34
2022-08-31T02:14:29.748Z,96589.66
2022-08-31T02:16:58.263Z,96656.25
2022-08-31T02:19:26.632Z,96643.81
2022-08-31T02:21:57.422Z,96685.69
2022-08-31T02:24:25.739Z,96646.78
2022-08-31T02:26:58.414Z,96604.34
2022-08-31T02:29:27.629Z,96663.59
2022-08-31T02:31:57.007Z,96605.25
2022-08-31T02:34:25.364Z,96663.13
2022-08-31T02:36:54.213Z,96695.88
2022-08-31T02:39:23.233Z,96643.09
2022-08-31T02:41:52.153Z,96628.91
2022-08-31T02:44:22.154Z,96651.19
2022-08-31T02:46:50.487Z,96681.66
2022-08-31T02:49:37.337Z,96633.22
2022-08-31T02:52:05.841Z,96638.59
2022-08-31T02:54:34.195Z,96650.03
2022-08-31T02:57:02.996Z,96660.66
2022-08-31T02:59:32.724Z,96681.94
2022-08-31T03:02:01.111Z,96667.41
2022-08-31T03:04:30.302Z,96657.09
2022-08-31T03:06:58.640Z,96655.00
2022-08-31T03:09:27.041Z,96675.25
2022-08-31T03:11:55.372Z,96668.34
2022-08-31T03:14:23.629Z,96601.19
2022-08-31T03:16:54.771Z,96681.34
2022-08-31T03:19:23.877Z,96692.81
2022-08-31T03:21:56.314Z,96651.22
2022-08-31T03:24:27.421Z,96608.63
2022-08-31T03:26:56.777Z,96569.78
2022-08-31T03:29:25.175Z,96668.19
2022-08-31T03:31:57.784Z,96665.78
2022-08-31T03:34:27.488Z,96708.41
2022-08-31T03:36:56.383Z,96681.34
2022-08-31T03:39:24.667Z,96696.31
2022-08-31T03:41:53.261Z,96669.44
2022-08-31T03:44:23.887Z,96670.69
2022-08-31T03:46:55.278Z,96643.41
2022-08-31T03:49:26.983Z,96651.00
2022-08-31T03:52:10.295Z,96631.94
2022-08-31T03:54:46.103Z,96623.53
2022-08-31T03:57:14.579Z,96606.19
2022-08-31T03:59:44.094Z,96628.06
2022-08-31T04:02:21.336Z,96664.94
2022-08-31T04:05:21.332Z,96658.81
2022-08-31T04:08:09.171Z,96629.75
2022-08-31T04:10:49.005Z,96682.56
2022-08-31T04:13:36.182Z,96714.16
2022-08-31T04:16:26.584Z,96674.00
2022-08-31T04:19:16.135Z,96695.75
2022-08-31T04:21:57.336Z,96670.13
2022-08-31T04:24:26.232Z,96667.47
2022-08-31T04:26:54.994Z,96735.47
2022-08-31T04:29:23.703Z,96676.69
2022-08-31T04:31:52.233Z,96716.22
2022-08-31T04:34:20.805Z,96645.00
2022-08-31T04:36:49.172Z,96712.75
2022-08-31T04:39:21.020Z,96712.53
2022-08-31T04:41:52.539Z,96669.50
2022-08-31T04:44:21.269Z,96720.31
2022-08-31T04:46:57.367Z,96744.06
2022-08-31T04:49:25.930Z,96676.22
2022-08-31T04:51:54.262Z,96690.59
2022-08-31T04:54:23.965Z,96700.66
2022-08-31T04:56:52.274Z,96709.25
2022-08-31T04:59:30.629Z,96709.25
2022-08-31T05:02:21.920Z,96695.94
2022-08-31T05:05:06.158Z,96691.44
2022-08-31T05:07:34.472Z,96701.25
2022-08-31T05:10:05.391Z,96731.56
2022-08-31T05:12:33.682Z,96730.75
2022-08-31T05:15:01.938Z,96715.81
2022-08-31T05:17:30.351Z,96724.41
2022-08-31T05:19:58.634Z,96762.13
2022-08-31T05:22:27.173Z,96740.00
2022-08-31T05:24:57.615Z,96700.84
2022-08-31T05:27:27.324Z,96772.34
2022-08-31T05:29:55.536Z,96735.47
2022-08-31T05:32:45.726Z,96740.81
2022-08-31T05:35:14.557Z,96744.91
2022-08-31T05:37:44.958Z,96743.88
2022-08-31T05:40:14.092Z,96721.53
2022-08-31T05:42:43.812Z,96721.97
2022-08-31T05:45:12.237Z,96760.03
2022-08-31T05:47:42.345Z,96736.13
2022-08-31T05:50:11.598Z,96756.38
2022-08-31T05:52:42.906Z,96751.28
2022-08-31T05:55:12.016Z,96692.69
2022-08-31T05:57:40.704Z,96684.28
2022-08-31T06:00:12.909Z,96762.50
2022-08-31T06:02:42.059Z,96707.00
2022-08-31T06:05:12.948Z,96742.03
2022-08-31T06:07:41.697Z,96759.44
2022-08-31T06:10:12.692Z,96766.81
2022-08-31T06:12:44.177Z,96758.84
2022-08-31T06:15:15.663Z,96725.22
2022-08-31T06:17:45.314Z,96747.16
2022-08-31T06:20:17.696Z,96791.81
2022-08-31T06:22:47.994Z,96770.72
2022-08-31T06:25:27.812Z,96773.59
2022-08-31T06:27:56.677Z,96758.81
2022-08-31T06:30:27.545Z,96818.88
2022-08-31T06:32:58.868Z,96741.63
2022-08-31T06:35:33.144Z,96750.66
2022-08-31T06:38:21.222Z,96743.06
2022-08-31T06:41:28.391Z,96690.63
2022-08-31T06:44:16.600Z,96731.56
2022-08-31T06:47:08.200Z,96776.06
2022-08-31T06:49:40.262Z,96812.50
2022-08-31T06:52:09.009Z,96754.31
2022-08-31T06:54:39.639Z,96742.84
2022-08-31T06:57:26.612Z,96769.06
2022-08-31T07:00:13.658Z,96737.72
2022-08-31T07:02:54.710Z,96779.50
2022-08-31T07:05:26.169Z,96720.53
2022-08-31T07:07:55.347Z,96747.16
2022-08-31T07:10:23.644Z,96771.13
2022-08-31T07:12:51.886Z,96805.13
2022-08-31T07:15:20.133Z,96758.44
2022-08-31T07:17:51.797Z,96771.31
2022-08-31T07:20:21.263Z,96725.03
2022-08-31T07:22:49.743Z,96808.78
2022-08-31T07:25:44.869Z,96776.44
2022-08-31T07:28:14.792Z,96702.72
2022-08-31T07:30:43.200Z,96769.47
2022-08-31T07:33:16.892Z,96795.91
2022-08-31T07:35:50.814Z,96810.88
2022-08-31T07:38:52.904Z,96796.13
2022-08-31T07:41:40.179Z,96824.19
2022-08-31T07:44:09.808Z,96809.84
2022-08-31T07:46:40.083Z,96796.53
2022-08-31T07:49:13.927Z,96799.59
2022-08-31T07:52:12.507Z,96809.63
2022-08-31T07:55:07.875Z,96802.25
2022-08-31T07:57:55.933Z,96784.66
2022-08-31T08:00:27.669Z,96854.72
2022-08-31T08:03:11.147Z,96790.41
2022-08-31T08:06:12.926Z,96782.59
2022-08-31T08:09:24.569Z,96827.25
2022-08-31T08:12:07.307Z,96811.88
2022-08-31T08:14:54.806Z,96818.44
2022-08-31T08:17:31.801Z,96830.13
2022-08-31T08:20:13.497Z,96823.91
2022-08-31T08:22:54.280Z,96838.31
2022-08-31T08:25:35.809Z,96805.84
2022-08-31T08:28:28.928Z,96840.31
2022-08-31T08:31:01.639Z,96861.19
2022-08-31T08:33:34.764Z,96816.13
2022-08-31T08:36:08.517Z,96794.19
2022-08-31T08:38:43.825Z,96788.81
2022-08-31T08:41:16.790Z,96823.50
2022-08-31T08:43:52.435Z,96832.91
2022-08-31T08:46:40.235Z,96852.63
2022-08-31T08:49:19.294Z,96833.69
2022-08-31T08:51:53.488Z,96812.75
2022-08-31T08:54:31.716Z,96808.59
2022-08-31T08:57:04.874Z,96866.41
2022-08-31T08:59:33.177Z,96815.44
2022-08-31T09:02:05.080Z,96794.41
2022-08-31T09:05:00.223Z,96909.03
2022-08-31T09:08:10.318Z,96831.31
2022-08-31T09:10:46.597Z,96856.63
2022-08-31T09:13:26.774Z,96810.03
2022-08-31T09:16:08.953Z,96879.81
2022-08-31T09:18:49.604Z,96857.72
2022-08-31T09:21:22.640Z,96841.47
2022-08-31T09:24:01.709Z,96872.47
2022-08-31T09:26:48.513Z,96836.75
2022-08-31T09:29:32.420Z,96881.69
2022-08-31T09:32:06.315Z,96827.25
2022-08-31T09:34:38.707Z,96855.66
2022-08-31T09:37:16.446Z,96835.69
2022-08-31T09:39:48.512Z,96743.28
2022-08-31T09:42:31.157Z,96858.28
2022-08-31T09:45:07.653Z,96874.66
2022-08-31T09:47:51.137Z,96853.69
2022-08-31T09:50:35.583Z,96819.84
2022-08-31T09:53:40.883Z,96831.88
2022-08-31T09:56:16.912Z,96799.84
2022-08-31T09:58:50.837Z,96853.59
2022-08-31T10:01:26.181Z,96829.63
2022-08-31T10:04:20.946Z,96834.84
2022-08-31T10:07:01.831Z,96817.44
2022-08-31T10:09:36.221Z,96771.19
2022-08-31T10:12:13.512Z,96841.44
2022-08-31T10:14:50.681Z,96799.88
2022-08-31T10:17:26.290Z,96784.22
2022-08-31T10:20:07.705Z,96838.94
2022-08-31T10:22:41.994Z,96813.22
2022-08-31T10:25:22.985Z,96830.47
2022-08-31T10:27:58.515Z,96888.22
2022-08-31T10:30:36.402Z,96764.19
2022-08-31T10:33:13.255Z,96846.63
2022-08-31T10:35:54.727Z,96841.78
2022-08-31T10:38:32.037Z,96733.75
2022-08-31T10:41:11.920Z,96858.06
2022-08-31T10:43:49.143Z,96875.06
2022-08-31T10:46:19.214Z,96768.50
2022-08-31T10:48:53.236Z,96829.34
2022-08-31T10:51:30.349Z,96836.66
2022-08-31T10:54:24.769Z,96841.19
2022-08-31T10:57:04.710Z,96818.41
2022-08-31T10:59:45.981Z,96802.50
2022-08-31T11:02:45.797Z,96804.72
2022-08-31T11:05:33.311Z,96796.22
2022-08-31T11:08:22.505Z,96813.69
2022-08-31T11:10:54.354Z,96821.25
2022-08-31T11:13:53.901Z,96870.16
2022-08-31T11:16:46.731Z,96810.38
2022-08-31T11:19:44.885Z,96750.38
2022-08-31T11:22:53.894Z,96847.69
2022-08-31T11:25:48.157Z,96850.31
2022-08-31T11:28:34.033Z,96768.66
2022-08-31T11:31:09.515Z,96794.59
2022-08-31T11:33:37.981Z,96818.69
2022-08-31T11:36:10.266Z,96775.28
2022-08-31T11:38:48.792Z,96817.50
2022-08-31T11:41:46.707Z,96866.88
2022-08-31T11:44:52.202Z,96804.97
2022-08-31T11:47:54.962Z,96793.56
2022-08-31T11:51:07.233Z,96801.25
2022-08-31T11:53:44.177Z,96797.31
2022-08-31T11:56:15.232Z,96807.22
2022-08-31T11:58:50.259Z,96840.53
2022-08-31T12:01:36.117Z,96795.44
2022-08-31T12:04:06.415Z,96791.75
2022-08-31T12:07:11.083Z,96822.13
2022-08-31T12:10:29.716Z,96837.88
2022-08-31T12:13:24.138Z,96730.03
2022-08-31T12:16:36.885Z,96778.53
2022-08-31T12:19:43.198Z,96798.78
2022-08-31T12:22:56.833Z,96858.81
2022-08-31T12:25:36.404Z,96726.59
2022-08-31T12:28:12.922Z,96810.03
2022-08-31T12:30:51.103Z,96780.03
2022-08-31T12:33:23.084Z,96784.44
2022-08-31T12:35:58.030Z,96775.03
2022-08-31T12:38:27.344Z,96808.31
2022-08-31T12:40:58.759Z,96798.44
2022-08-31T12:43:34.910Z,96763.56
2022-08-31T12:46:34.107Z,96770.91
2022-08-31T12:49:22.761Z,96647.06
2022-08-31T12:51:57.309Z,96809.84
2022-08-31T12:55:23.732Z,96725.75
2022-08-31T12:58:13.831Z,96739.31
2022-08-31T13:00:43.531Z,96796.03
2022-08-31T13:03:21.829Z,96783.69
2022-08-31T13:06:09.891Z,96800.47
2022-08-31T13:08:42.053Z,96788.50
2022-08-31T13:11:22.993Z,96755.22
2022-08-31T13:13:54.185Z,96766.06
2022-08-31T13:16:23.507Z,96746.28
2022-08-31T13:19:02.965Z,96762.66
2022-08-31T13:21:31.811Z,96734.94
2022-08-31T13:24:08.319Z,96762.72
2022-08-31T13:26:38.603Z,96781.56
2022-08-31T13:29:10.189Z,96741.50
2022-08-31T13:31:50.729Z,96733.59
2022-08-31T13:34:20.393Z,96713.72
2022-08-31T13:36:53.634Z,96725.91
2022-08-31T13:39:28.164Z,96694.88
2022-08-31T13:42:06.096Z,96765.53
2022-08-31T13:44:44.234Z,96742.94
2022-08-31T13:47:24.820Z,96702.06
2022-08-31T13:50:07.287Z,96711.47
2022-08-31T13:52:37.064Z,96718.50
2022-08-31T13:55:09.625Z,96729.69
2022-08-31T13:57:39.246Z,96720.16
2022-08-31T14:00:33.575Z,96656.00
2022-08-31T14:03:45.100Z,96717.44
2022-08-31T14:06:25.295Z,96727.66
2022-08-31T14:09:00.266Z,96787.00
2022-08-31T14:11:29.108Z,96696.28
2022-08-31T14:14:07.416Z,96681.00
2022-08-31T14:16:43.524Z,96739.84
2022-08-31T14:19:12.757Z,96717.66
2022-08-31T14:21:43.593Z,96557.66
2022-08-31T14:24:13.323Z,96722.84
2022-08-31T14:26:44.418Z,96847.50
2022-08-31T14:29:15.550Z,96695.44
2022-08-31T14:31:52.485Z,96722.22
2022-08-31T14:34:27.348Z,96671.53
2022-08-31T14:36:59.380Z,96748.34
2022-08-31T14:39:31.917Z,96772.56
2022-08-31T14:42:03.803Z,96707.66
2022-08-31T14:44:36.806Z,96695.22
2022-08-31T14:47:06.970Z,96646.50
2022-08-31T14:49:36.513Z,96719.66
2022-08-31T14:52:06.605Z,96650.81
2022-08-31T14:54:37.723Z,96725.88
2022-08-31T14:57:12.766Z,96670.16
2022-08-31T14:59:44.810Z,96698.72
2022-08-31T15:02:21.638Z,96680.84
2022-08-31T15:04:50.972Z,96650.53
2022-08-31T15:07:20.880Z,96722.50
2022-08-31T15:09:50.266Z,96649.28
2022-08-31T15:12:19.400Z,96707.13
2022-08-31T15:14:47.685Z,96684.97
2022-08-31T15:17:20.792Z,96699.69
2022-08-31T15:19:55.211Z,96677.56
2022-08-31T15:22:26.180Z,96700.09
2022-08-31T15:24:55.639Z,96756.97
2022-08-31T15:27:28.720Z,96703.31
2022-08-31T15:30:08.092Z,96689.69
2022-08-31T15:32:45.155Z,96538.47
2022-08-31T15:35:18.024Z,96634.28
2022-08-31T15:37:53.049Z,96673.44
2022-08-31T15:40:22.234Z,96700.38
2022-08-31T15:42:50.969Z,96655.59
2022-08-31T15:45:19.607Z,96696.16
2022-08-31T15:48:07.131Z,96719.25
2022-08-31T15:50:36.022Z,96702.66
2022-08-31T15:53:09.919Z,96704.75
2022-08-31T15:55:41.000Z,96605.44
2022-08-31T15:58:10.688Z,96730.03
2022-08-31T16:00:41.812Z,96726.88
2022-08-31T16:03:15.587Z,96662.03
2022-08-31T16:05:44.305Z,96691.72
2022-08-31T16:08:14.133Z,96676.13
2022-08-31T16:10:44.581Z,96663.50
2022-08-31T16:13:13.425Z,96591.88
2022-08-31T16:15:41.838Z,96654.22
2022-08-31T16:18:12.794Z,96675.41
2022-08-31T16:20:41.110Z,96688.25
2022-08-31T16:23:09.395Z,96669.56
2022-08-31T16:25:47.719Z,96736.84
2022-08-31T16:28:18.423Z,96685.22
2022-08-31T16:30:46.966Z,96751.81
2022-08-31T16:33:16.593Z,96639.22
2022-08-31T16:35:45.884Z,96703.28
2022-08-31T16:38:15.134Z,96650.00
2022-08-31T16:40:44.314Z,96704.47
2022-08-31T16:43:12.982Z,96682.44
2022-08-31T16:45:42.205Z,96741.50
2022-08-31T16:48:29.540Z,96675.59
2022-08-31T16:51:02.154Z,96717.06
2022-08-31T16:53:32.619Z,96649.84
2022-08-31T16:56:04.594Z,96649.84
2022-08-31T16:58:51.262Z,96713.47
2022-08-31T17:01:25.552Z,96668.56
2022-08-31T17:03:56.910Z,96728.56
2022-08-31T17:06:31.843Z,96669.81
2022-08-31T17:09:03.236Z,96744.75
2022-08-31T17:11:35.690Z,96710.16
2022-08-31T17:14:11.133Z,96711.91
2022-08-31T17:16:41.413Z,96705.63
2022-08-31T17:19:13.457Z,96725.66
2022-08-31T17:21:50.561Z,96693.81
2022-08-31T17:24:23.350Z,96669.22
2022-08-31T17:26:54.057Z,96740.84
2022-08-31T17:29:23.683Z,96741.88
2022-08-31T17:31:53.630Z,96729.41
2022-08-31T17:34:26.911Z,96772.44
2022-08-31T17:37:00.538Z,96742.72
2022-08-31T17:39:29.452Z,96729.88
2022-08-31T17:41:58.135Z,96724.50
2022-08-31T17:44:30.847Z,96779.47
2022-08-31T17:47:04.288Z,96756.78
2022-08-31T17:49:37.979Z,96737.28
2022-08-31T17:52:09.150Z,96761.28
2022-08-31T17:54:42.131Z,96678.09
2022-08-31T17:57:13.408Z,96740.78
2022-08-31T17:59:48.791Z,96730.56
2022-08-31T18:02:21.575Z,96788.06
2022-08-31T18:04:54.251Z,96768.84
2022-08-31T18:07:23.984Z,96790.59
2022-08-31T18:09:53.857Z,96830.53
2022-08-31T18:12:25.539Z,96726.38
2022-08-31T18:14:57.437Z,96818.94
2022-08-31T18:17:26.616Z,96763.88
2022-08-31T18:19:55.780Z,96796.19
2022-08-31T18:22:26.075Z,96774.06
2022-08-31T18:24:54.331Z,96612.25
2022-08-31T18:27:22.618Z,96776.19
2022-08-31T18:29:52.821Z,96785.47
2022-08-31T18:32:23.091Z,96758.06
2022-08-31T18:34:57.050Z,96798.03
2022-08-31T18:37:28.181Z,96786.75
2022-08-31T18:40:14.037Z,96747.66
2022-08-31T18:43:00.191Z,96796.69
2022-08-31T18:45:30.827Z,96814.06
2022-08-31T18:48:25.114Z,96854.22
2022-08-31T18:50:51.044Z,96814.53
2022-08-31T18:53:28.688Z,96834.72
2022-08-31T18:56:07.957Z,96773.03
2022-08-31T18:58:36.915Z,96824.16
2022-08-31T19:01:10.445Z,96823.25
2022-08-31T19:03:39.634Z,96638.31
2022-08-31T19:06:08.866Z,96642.63
2022-08-31T19:08:38.510Z,96769.75
2022-08-31T19:11:33.439Z,96803.09
2022-08-31T19:14:01.937Z,96781.59
2022-08-31T19:16:32.190Z,96808.03
2022-08-31T19:19:00.485Z,96768.03
2022-08-31T19:21:33.184Z,96815.09
2022-08-31T19:24:07.404Z,96839.25
2022-08-31T19:26:38.689Z,96800.81
2022-08-31T19:29:11.272Z,96834.06
2022-08-31T19:31:44.346Z,96807.72
2022-08-31T19:34:15.983Z,96780.25
2022-08-31T19:36:45.960Z,96764.28
2022-08-31T19:39:19.127Z,96799.94
2022-08-31T19:41:50.932Z,96657.72
2022-08-31T19:44:19.891Z,96780.81
2022-08-31T19:46:55.626Z,96766.06
2022-08-31T19:49:26.691Z,96802.44
2022-08-31T19:52:01.105Z,96836.81
2022-08-31T19:54:35.742Z,96803.19
2022-08-31T19:57:06.845Z,96811.38
2022-08-31T19:59:35.952Z,96834.44
2022-08-31T20:02:07.545Z,96844.44
2022-08-31T20:04:36.676Z,96693.50
2022-08-31T20:07:06.398Z,96799.13
2022-08-31T20:09:36.434Z,96802.09
2022-08-31T20:12:05.256Z,96793.66
2022-08-31T20:14:33.556Z,96830.19
2022-08-31T20:17:02.043Z,96792.91
2022-08-31T20:19:36.697Z,96796.63
2022-08-31T20:22:08.061Z,96842.41
2022-08-31T20:24:43.919Z,96794.38
2022-08-31T20:27:18.376Z,96801.81
2022-08-31T20:29:48.150Z,96762.47
2022-08-31T20:32:16.609Z,96883.00
2022-08-31T20:34:44.922Z,96860.03
2022-08-31T20:37:14.201Z,96804.44
2022-08-31T20:39:43.802Z,96856.16
2022-08-31T20:42:12.773Z,96835.59
2022-08-31T20:44:41.134Z,96803.88
2022-08-31T20:47:29.350Z,96829.09
2022-08-31T20:49:59.695Z,96818.66
2022-08-31T20:52:35.938Z,96759.34
2022-08-31T20:55:08.255Z,96823.56
2022-08-31T20:57:40.658Z,96761.47
2022-08-31T21:00:11.734Z,96780.91
2022-08-31T21:02:40.744Z,96723.59
2022-08-31T21:05:38.083Z,96796.09
2022-08-31T21:08:02.508Z,96839.94
2022-08-31T21:10:37.426Z,96819.84
2022-08-31T21:13:10.182Z,96704.97
2022-08-31T21:15:44.771Z,96829.69
2022-08-31T21:18:17.371Z,96846.31
2022-08-31T21:20:46.171Z,96889.19
2022-08-31T21:23:14.453Z,96803.47
2022-08-31T21:25:47.005Z,96854.34
2022-08-31T21:28:18.292Z,96860.91
2022-08-31T21:30:49.560Z,96823.56
2022-08-31T21:33:18.207Z,96830.75
2022-08-31T21:35:47.749Z,96802.09
2022-08-31T21:38:16.204Z,96835.06
2022-08-31T21:40:52.085Z,96869.53
2022-08-31T21:43:21.125Z,96831.78
2022-08-31T21:45:55.129Z,96807.16
2022-08-31T21:48:26.152Z,96817.03
2022-08-31T21:50:54.983Z,96856.41
2022-08-31T21:53:25.719Z,96821.31
2022-08-31T21:55:55.557Z,96839.13
2022-08-31T21:58:23.785Z,96757.19
2022-08-31T22:00:52.561Z,96848.38
2022-08-31T22:03:21.249Z,96752.47
2022-08-31T22:05:50.305Z,96846.34
2022-08-31T22:08:19.876Z,96912.97
2022-08-31T22:10:50.257Z,96764.56
2022-08-31T22:13:20.047Z,96851.44
2022-08-31T22:15:48.527Z,96849.00
2022-08-31T22:21:05.853Z,96873.38
2022-08-31T22:23:35.749Z,96818.88
2022-08-31T22:26:04.251Z,96881.34
2022-08-31T22:28:34.836Z,96821.91
2022-08-31T22:31:04.742Z,96836.50
2022-08-31T22:33:33.022Z,96826.84
2022-08-31T22:36:01.866Z,96800.81
2022-08-31T22:38:30.190Z,96851.41
2022-08-31T22:40:58.874Z,96830.91
2022-08-31T22:43:27.209Z,96854.88
2022-08-31T22:45:56.916Z,96831.97
2022-08-31T22:48:28.064Z,96749.81
2022-08-31T22:50:56.396Z,96805.69
2022-08-31T22:53:24.630Z,96821.06
2022-08-31T22:55:52.884Z,96857.09
2022-08-31T22:58:21.252Z,96805.03
2022-08-31T23:00:49.628Z,96857.09
2022-08-31T23:03:22.027Z,96885.34
2022-08-31T23:05:52.669Z,96819.59
2022-08-31T23:08:22.573Z,96883.66
2022-08-31T23:10:50.847Z,96793.56
2022-08-31T23:13:39.146Z,96852.50
2022-08-31T23:16:07.453Z,96845.28
2022-08-31T23:18:37.130Z,96829.13
2022-08-31T23:21:08.698Z,96862.25
2022-08-31T23:23:37.514Z,96804.94
2022-08-31T23:26:09.561Z,96840.09
2022-08-31T23:28:38.409Z,96850.94
2022-08-31T23:31:08.387Z,96850.09
2022-08-31T23:33:38.054Z,96732.81
2022-08-31T23:36:08.231Z,96752.00
2022-08-31T23:38:37.982Z,96820.59
2022-08-31T23:41:06.598Z,96804.41
2022-08-31T23:43:41.913Z,96835.47
2022-08-31T23:46:10.203Z,96815.88
2022-08-31T23:48:41.049Z,96844.09
2022-08-31T23:51:10.669Z,96780.16
2022-08-31T23:53:39.293Z,96839.94
2022-08-31T23:56:09.648Z,96846.47
2022-08-31T23:58:39.893Z,96788.94
